This is the latest recevied weather packets stored in our database for station/object SV1BYK-1. If no packets are shown the sender has not sent any weather packets the latest 10 day(s).
| Time | Temp. | Humidity | Pressure | Rain* | Wind** | Luminosity | Snow |
|---|---|---|---|---|---|---|---|
| 1777724525 | 0° C | 100% | 0 hPa | 0 mm | - | - | - |
| 1777720745 | 0° C | 100% | 0 hPa | 0 mm | - | - | - |
| 1777711025 | 0° C | 100% | 0 hPa | 0 mm | - | - | - |
| 1777708865 | 0° C | 100% | 0 hPa | 0 mm | - | - | - |
| 1777708325 | 0° C | 100% | 0 hPa | 0 mm | - | - | - |
| 1777703465 | 0° C | 100% | 0 hPa | 0 mm | - | - | - |
| 1777702385 | 0° C | 100% | 0 hPa | 0 mm | - | - | - |
| 1777701845 | 0° C | 100% | 0 hPa | 0 mm | - | - | - |
| 1777697525 | 0° C | 100% | 0 hPa | 0 mm | - | - | - |
| 1777693745 | 0° C | 100% | 0 hPa | 0 mm | - | - | - |
| 1777692665 | 0° C | 100% | 0 hPa | 0 mm | - | - | - |
| 1777692125 | 0° C | 100% | 0 hPa | 0 mm | - | - | - |
| 1777689965 | 0° C | 100% | 0 hPa | 0 mm | - | - | - |
| 1777685433 | 0° C | 100% | 0 hPa | 0 mm | - | - | - |
| 1777682733 | 0° C | 100% | 0 hPa | 0 mm | - | - | - |
| 1777601095 | 20° C | 42% | 1013.1 hPa | 0 mm | - | - | - |
| 1777594075 | 20° C | 42% | 1013.1 hPa | 0 mm | - | - | - |
| 1777588135 | 20° C | 42% | 1013.1 hPa | 0 mm | - | - | - |
| 1777576255 | 20.56° C | 42% | 1011.9 hPa | 0 mm | - | - | - |
| 1777575175 | 20.56° C | 42% | 1011.9 hPa | 0 mm | - | - | - |
| 1777574635 | 20.56° C | 42% | 1011.9 hPa | 0 mm | - | - | - |
| 1777569775 | 21.67° C | 40% | 1010.9 hPa | 0 mm | - | - | - |
| 1777569235 | 21.67° C | 40% | 1010.9 hPa | 0 mm | - | - | - |
| 1777554115 | 26.67° C | 30% | 1010.1 hPa | 0 mm | - | - | - |
| 1777551955 | 26.11° C | 30% | 1010.5 hPa | 0 mm | - | - | - |
* Rain latest hour (hover to see other rain measurements)
** Current wind speed in m/s (hover to see current wind gust speed)